AEST,Max TemperatureF,Mean TemperatureF,Min TemperatureF,Max Dew PointF,MeanDew PointF,Min DewpointF,Max Humidity, Mean Humidity, Min Humidity, Max Sea Level PressureIn, Mean Sea Level PressureIn, Min Sea Level PressureIn, Max VisibilityMiles, Mean VisibilityMiles, Min VisibilityMiles, Max Wind SpeedMPH, Mean Wind SpeedMPH, Max Gust SpeedMPH,PrecipitationIn, CloudCover, Events, WindDirDegrees
2013-2-1,93,86,78,79,78,72,94,79,49,29.81,29.75,29.68,19,8,6,15,5,,0.00,3,,344
2013-2-2,96,87,78,79,75,68,94,67,37,29.78,29.72,29.68,19,8,6,16,6,,0.00,3,Thunderstorm,303
2013-2-3,95,84,72,77,71,63,89,63,33,29.86,29.77,29.71,19,8,6,17,7,,0.00,1,,139
2013-2-4,92,84,75,77,75,70,94,73,44,29.93,29.86,29.80,19,8,6,16,5,,0.00,1,,107
2013-2-5,91,84,78,73,69,64,79,61,33,29.96,29.90,29.83,19,7,6,16,9,,0.03,1,,147
2013-2-6,89,82,75,73,69,63,94,64,32,29.92,29.86,29.80,19,7,3,21,11,,0.01,2,Rain,153
2013-2-7,91,83,75,73,68,63,89,62,32,29.90,29.83,29.74,19,8,6,17,10,,0.01,1,Rain,155
2013-2-8,90,82,73,73,70,68,94,69,41,29.90,29.85,29.80,19,8,6,23,10,,0.00,2,Rain,154
2013-2-9,90,82,74,75,72,69,94,74,46,29.91,29.85,29.77,19,7,2,17,11,,0.55,4,Rain,147
2013-2-10,88,82,75,77,74,68,94,79,47,29.91,29.84,29.80,19,6,2,15,10,,0.08,4,Rain,161
2013-2-11,89,83,77,75,73,70,83,69,47,29.89,29.83,29.77,19,7,6,16,9,,0.12,2,,141
2013-2-12,88,82,75,75,73,70,94,74,48,29.88,29.82,29.77,19,7,4,18,10,,0.00,4,Rain,155
2013-2-13,89,82,74,75,71,66,94,69,51,29.84,29.79,29.71,19,7,2,20,10,,0.24,3,Rain,156
2013-2-14,89,82,74,79,73,70,94,81,51,29.83,29.78,29.71,19,6,2,17,10,,0.16,4,Rain,162
2013-2-15,89,82,74,77,74,72,100,80,52,29.81,29.75,29.71,19,7,3,21,9,,0.79,4,Rain,153
2013-2-16,89,82,74,76,74,70,100,76,48,29.81,29.74,29.68,19,8,3,14,7,,0.00,4,,130
2013-2-17,89,82,76,75,74,72,94,75,56,29.79,29.73,29.65,19,8,6,14,8,,0.00,6,,140
2013-2-18,87,82,77,77,75,72,89,77,59,29.75,29.69,29.62,19,7,6,10,7,,0.00,6,,95
2013-2-19,88,82,76,77,76,73,94,82,55,29.78,29.71,29.65,16,6,4,10,4,,0.01,6,Rain,146
2013-2-20,90,84,77,79,76,75,94,78,55,29.76,29.71,29.62,16,7,6,14,6,,0.00,3,Rain-Thunderstorm,147
2013-2-21,89,82,75,79,76,72,100,85,57,29.78,29.72,29.68,16,6,3,16,6,,0.24,4,Rain-Thunderstorm,173
2013-2-22,89,82,75,79,75,70,100,82,56,29.79,29.73,29.68,19,6,0,20,6,32,0.47,6,Rain,133
2013-2-23,87,80,74,75,73,70,96,79,55,29.85,29.74,29.68,19,8,4,15,5,,0.01,6,Rain,284
2013-2-24,87,80,73,77,73,68,94,80,62,29.82,29.76,29.71,19,8,6,13,5,,0.16,4,Rain,151
2013-2-25,88,81,74,77,74,72,95,77,54,29.81,29.74,29.68,19,8,6,13,5,,0.00,2,,139
2013-2-26,88,80,73,74,73,70,100,75,50,29.77,29.70,29.62,19,8,6,12,5,,0.00,2,,65
2013-2-27,91,83,75,81,75,73,100,82,54,29.72,29.65,29.56,19,7,2,22,5,29,0.91,4,Rain-Thunderstorm,162
2013-2-28,89,82,75,81,77,75,100,87,66,29.71,29.64,29.59,19,7,2,15,3,,1.02,5,Rain,185